sensor_id;sensor_type;location;lat;lon;timestamp;P1;durP1;ratioP1;P2;durP2;ratioP2
72275;SDS011;61204;49.980;8.358;2023-08-06T00:00:56;6.25;;;2.95;;
72275;SDS011;61204;49.980;8.358;2023-08-06T00:03:22;3.85;;;2.65;;
72275;SDS011;61204;49.980;8.358;2023-08-06T00:05:47;4.38;;;3.30;;
72275;SDS011;61204;49.980;8.358;2023-08-06T00:08:13;5.05;;;3.13;;
72275;SDS011;61204;49.980;8.358;2023-08-06T00:10:39;4.60;;;3.17;;
72275;SDS011;61204;49.980;8.358;2023-08-06T00:13:06;3.13;;;2.65;;
72275;SDS011;61204;49.980;8.358;2023-08-06T00:15:31;4.93;;;3.30;;
72275;SDS011;61204;49.980;8.358;2023-08-06T00:17:57;3.90;;;2.90;;
72275;SDS011;61204;49.980;8.358;2023-08-06T00:20:22;3.78;;;3.30;;
72275;SDS011;61204;49.980;8.358;2023-08-06T00:22:48;3.33;;;2.65;;
72275;SDS011;61204;49.980;8.358;2023-08-06T00:25:13;5.00;;;3.00;;
72275;SDS011;61204;49.980;8.358;2023-08-06T00:27:39;4.35;;;3.35;;
72275;SDS011;61204;49.980;8.358;2023-08-06T00:30:04;3.97;;;3.10;;
72275;SDS011;61204;49.980;8.358;2023-08-06T00:32:31;4.82;;;3.30;;
72275;SDS011;61204;49.980;8.358;2023-08-06T00:34:59;5.32;;;2.90;;
72275;SDS011;61204;49.980;8.358;2023-08-06T00:37:24;4.10;;;3.20;;
72275;SDS011;61204;49.980;8.358;2023-08-06T00:39:50;7.40;;;3.25;;
72275;SDS011;61204;49.980;8.358;2023-08-06T00:42:16;3.70;;;2.90;;
72275;SDS011;61204;49.980;8.358;2023-08-06T00:44:45;5.28;;;2.50;;
72275;SDS011;61204;49.980;8.358;2023-08-06T00:47:14;5.50;;;2.70;;
72275;SDS011;61204;49.980;8.358;2023-08-06T00:49:41;4.25;;;2.80;;
72275;SDS011;61204;49.980;8.358;2023-08-06T00:52:07;4.00;;;2.55;;
72275;SDS011;61204;49.980;8.358;2023-08-06T00:54:33;3.25;;;2.70;;
72275;SDS011;61204;49.980;8.358;2023-08-06T00:57:01;3.50;;;2.63;;
72275;SDS011;61204;49.980;8.358;2023-08-06T00:59:28;3.40;;;2.83;;
72275;SDS011;61204;49.980;8.358;2023-08-06T01:01:56;3.85;;;2.60;;
72275;SDS011;61204;49.980;8.358;2023-08-06T01:04:24;3.92;;;2.83;;
72275;SDS011;61204;49.980;8.358;2023-08-06T01:12:50;3.85;;;2.75;;
72275;SDS011;61204;49.980;8.358;2023-08-06T01:15:35;5.13;;;2.85;;
72275;SDS011;61204;49.980;8.358;2023-08-06T01:18:14;2.58;;;2.15;;
72275;SDS011;61204;49.980;8.358;2023-08-06T01:20:43;4.18;;;2.88;;
72275;SDS011;61204;49.980;8.358;2023-08-06T01:23:09;4.05;;;2.30;;
72275;SDS011;61204;49.980;8.358;2023-08-06T01:31:44;3.25;;;2.65;;
72275;SDS011;61204;49.980;8.358;2023-08-06T01:34:20;6.15;;;3.05;;
72275;SDS011;61204;49.980;8.358;2023-08-06T01:36:49;4.07;;;3.15;;
72275;SDS011;61204;49.980;8.358;2023-08-06T01:39:16;3.70;;;3.13;;
72275;SDS011;61204;49.980;8.358;2023-08-06T01:41:45;4.35;;;3.28;;
72275;SDS011;61204;49.980;8.358;2023-08-06T01:44:12;3.58;;;2.75;;
72275;SDS011;61204;49.980;8.358;2023-08-06T01:46:38;5.18;;;3.20;;
72275;SDS011;61204;49.980;8.358;2023-08-06T01:49:04;5.03;;;3.40;;
72275;SDS011;61204;49.980;8.358;2023-08-06T01:51:31;4.18;;;3.17;;
72275;SDS011;61204;49.980;8.358;2023-08-06T01:53:57;4.50;;;3.35;;
72275;SDS011;61204;49.980;8.358;2023-08-06T01:56:22;4.07;;;3.30;;
72275;SDS011;61204;49.980;8.358;2023-08-06T01:58:48;6.63;;;3.90;;
72275;SDS011;61204;49.980;8.358;2023-08-06T02:01:13;5.32;;;3.40;;
72275;SDS011;61204;49.980;8.358;2023-08-06T02:03:39;5.82;;;3.38;;
72275;SDS011;61204;49.980;8.358;2023-08-06T02:06:07;3.70;;;3.10;;
72275;SDS011;61204;49.980;8.358;2023-08-06T02:08:35;5.20;;;3.75;;
72275;SDS011;61204;49.980;8.358;2023-08-06T02:11:04;5.82;;;3.35;;
72275;SDS011;61204;49.980;8.358;2023-08-06T02:13:30;4.45;;;3.25;;
72275;SDS011;61204;49.980;8.358;2023-08-06T02:15:56;7.32;;;4.43;;
72275;SDS011;61204;49.980;8.358;2023-08-06T02:18:21;6.32;;;3.55;;
72275;SDS011;61204;49.980;8.358;2023-08-06T02:20:56;5.38;;;3.33;;
72275;SDS011;61204;49.980;8.358;2023-08-06T02:23:26;4.88;;;3.33;;
72275;SDS011;61204;49.980;8.358;2023-08-06T02:26:03;4.65;;;3.30;;
72275;SDS011;61204;49.980;8.358;2023-08-06T02:28:31;4.13;;;3.15;;
72275;SDS011;61204;49.980;8.358;2023-08-06T02:30:57;4.60;;;3.38;;
72275;SDS011;61204;49.980;8.358;2023-08-06T02:33:23;4.40;;;3.08;;
72275;SDS011;61204;49.980;8.358;2023-08-06T02:35:49;6.72;;;3.50;;
72275;SDS011;61204;49.980;8.358;2023-08-06T02:38:16;5.32;;;3.25;;
72275;SDS011;61204;49.980;8.358;2023-08-06T02:40:43;5.40;;;2.70;;
72275;SDS011;61204;49.980;8.358;2023-08-06T02:43:14;5.55;;;2.63;;
72275;SDS011;61204;49.980;8.358;2023-08-06T02:45:42;7.05;;;2.90;;
72275;SDS011;61204;49.980;8.358;2023-08-06T02:48:09;5.20;;;3.13;;
72275;SDS011;61204;49.980;8.358;2023-08-06T02:50:38;4.88;;;3.67;;
72275;SDS011;61204;49.980;8.358;2023-08-06T02:53:06;5.32;;;2.88;;
72275;SDS011;61204;49.980;8.358;2023-08-06T02:55:35;4.10;;;2.85;;
72275;SDS011;61204;49.980;8.358;2023-08-06T02:58:01;4.00;;;2.80;;
72275;SDS011;61204;49.980;8.358;2023-08-06T03:00:27;3.47;;;2.83;;
72275;SDS011;61204;49.980;8.358;2023-08-06T03:02:53;3.85;;;2.20;;
72275;SDS011;61204;49.980;8.358;2023-08-06T03:05:19;5.25;;;2.65;;
72275;SDS011;61204;49.980;8.358;2023-08-06T03:07:45;3.97;;;2.75;;
72275;SDS011;61204;49.980;8.358;2023-08-06T03:10:10;4.80;;;3.10;;
72275;SDS011;61204;49.980;8.358;2023-08-06T03:12:38;5.40;;;2.55;;
72275;SDS011;61204;49.980;8.358;2023-08-06T03:15:06;7.32;;;2.72;;
72275;SDS011;61204;49.980;8.358;2023-08-06T03:17:33;2.63;;;2.10;;
72275;SDS011;61204;49.980;8.358;2023-08-06T03:20:01;3.22;;;2.25;;
72275;SDS011;61204;49.980;8.358;2023-08-06T03:22:27;3.78;;;2.50;;
72275;SDS011;61204;49.980;8.358;2023-08-06T03:24:52;3.85;;;2.83;;
72275;SDS011;61204;49.980;8.358;2023-08-06T03:27:20;3.10;;;2.33;;
72275;SDS011;61204;49.980;8.358;2023-08-06T03:29:48;3.10;;;2.10;;
72275;SDS011;61204;49.980;8.358;2023-08-06T03:32:20;2.58;;;2.03;;
72275;SDS011;61204;49.980;8.358;2023-08-06T03:34:50;2.55;;;1.90;;
72275;SDS011;61204;49.980;8.358;2023-08-06T03:37:16;2.95;;;2.20;;
72275;SDS011;61204;49.980;8.358;2023-08-06T03:39:44;3.15;;;1.90;;
72275;SDS011;61204;49.980;8.358;2023-08-06T03:42:11;3.28;;;1.70;;
72275;SDS011;61204;49.980;8.358;2023-08-06T03:44:37;3.53;;;2.05;;
72275;SDS011;61204;49.980;8.358;2023-08-06T03:47:02;3.10;;;1.73;;
72275;SDS011;61204;49.980;8.358;2023-08-06T03:49:28;5.47;;;1.80;;
72275;SDS011;61204;49.980;8.358;2023-08-06T03:51:56;2.38;;;1.48;;
72275;SDS011;61204;49.980;8.358;2023-08-06T03:54:21;1.88;;;1.52;;
72275;SDS011;61204;49.980;8.358;2023-08-06T03:56:47;3.15;;;1.90;;
72275;SDS011;61204;49.980;8.358;2023-08-06T03:59:12;2.40;;;1.30;;
72275;SDS011;61204;49.980;8.358;2023-08-06T04:01:38;4.15;;;1.60;;
72275;SDS011;61204;49.980;8.358;2023-08-06T04:04:03;1.95;;;1.25;;
72275;SDS011;61204;49.980;8.358;2023-08-06T04:06:29;3.22;;;1.70;;
72275;SDS011;61204;49.980;8.358;2023-08-06T04:08:54;1.70;;;1.38;;
72275;SDS011;61204;49.980;8.358;2023-08-06T04:11:20;3.33;;;1.40;;
72275;SDS011;61204;49.980;8.358;2023-08-06T04:13:48;1.73;;;1.33;;
72275;SDS011;61204;49.980;8.358;2023-08-06T04:16:13;3.42;;;1.35;;
72275;SDS011;61204;49.980;8.358;2023-08-06T04:18:39;3.45;;;1.40;;
72275;SDS011;61204;49.980;8.358;2023-08-06T04:21:07;3.25;;;1.40;;
72275;SDS011;61204;49.980;8.358;2023-08-06T04:23:35;1.77;;;1.00;;
72275;SDS011;61204;49.980;8.358;2023-08-06T04:26:00;1.50;;;0.90;;
72275;SDS011;61204;49.980;8.358;2023-08-06T04:28:26;1.27;;;0.70;;
72275;SDS011;61204;49.980;8.358;2023-08-06T04:30:52;1.67;;;0.85;;
72275;SDS011;61204;49.980;8.358;2023-08-06T04:33:18;3.15;;;0.70;;
72275;SDS011;61204;49.980;8.358;2023-08-06T04:35:47;1.40;;;0.60;;
72275;SDS011;61204;49.980;8.358;2023-08-06T04:38:12;2.83;;;1.13;;
72275;SDS011;61204;49.980;8.358;2023-08-06T04:40:38;0.70;;;0.52;;
72275;SDS011;61204;49.980;8.358;2023-08-06T04:43:03;1.85;;;0.65;;
72275;SDS011;61204;49.980;8.358;2023-08-06T04:45:29;2.05;;;0.88;;
72275;SDS011;61204;49.980;8.358;2023-08-06T04:47:55;4.00;;;0.52;;
72275;SDS011;61204;49.980;8.358;2023-08-06T04:50:20;1.75;;;0.77;;
72275;SDS011;61204;49.980;8.358;2023-08-06T04:52:46;1.05;;;0.88;;
72275;SDS011;61204;49.980;8.358;2023-08-06T04:55:11;1.55;;;0.80;;
72275;SDS011;61204;49.980;8.358;2023-08-06T04:57:37;2.08;;;0.75;;
72275;SDS011;61204;49.980;8.358;2023-08-06T05:00:02;1.25;;;0.45;;
72275;SDS011;61204;49.980;8.358;2023-08-06T05:02:30;0.90;;;0.60;;
72275;SDS011;61204;49.980;8.358;2023-08-06T05:04:57;0.85;;;0.60;;
72275;SDS011;61204;49.980;8.358;2023-08-06T05:07:23;1.27;;;0.68;;
72275;SDS011;61204;49.980;8.358;2023-08-06T05:09:49;3.60;;;0.80;;
72275;SDS011;61204;49.980;8.358;2023-08-06T05:12:14;1.73;;;0.70;;
72275;SDS011;61204;49.980;8.358;2023-08-06T05:14:40;1.25;;;0.65;;
72275;SDS011;61204;49.980;8.358;2023-08-06T05:17:05;2.50;;;0.90;;
72275;SDS011;61204;49.980;8.358;2023-08-06T05:19:31;1.42;;;0.70;;
72275;SDS011;61204;49.980;8.358;2023-08-06T05:22:00;1.58;;;0.88;;
72275;SDS011;61204;49.980;8.358;2023-08-06T05:24:27;1.88;;;1.13;;
72275;SDS011;61204;49.980;8.358;2023-08-06T05:26:53;2.28;;;0.70;;
72275;SDS011;61204;49.980;8.358;2023-08-06T05:29:18;1.27;;;0.90;;
72275;SDS011;61204;49.980;8.358;2023-08-06T05:31:44;1.10;;;0.60;;
72275;SDS011;61204;49.980;8.358;2023-08-06T05:34:10;1.77;;;0.82;;
72275;SDS011;61204;49.980;8.358;2023-08-06T05:36:35;0.75;;;0.50;;
72275;SDS011;61204;49.980;8.358;2023-08-06T05:39:03;1.10;;;0.70;;
72275;SDS011;61204;49.980;8.358;2023-08-06T05:41:29;1.13;;;0.60;;
72275;SDS011;61204;49.980;8.358;2023-08-06T05:43:54;0.43;;;0.32;;
72275;SDS011;61204;49.980;8.358;2023-08-06T05:46:20;0.90;;;0.30;;
72275;SDS011;61204;49.980;8.358;2023-08-06T05:48:45;0.63;;;0.38;;
72275;SDS011;61204;49.980;8.358;2023-08-06T05:51:11;0.52;;;0.35;;
72275;SDS011;61204;49.980;8.358;2023-08-06T05:53:38;0.73;;;0.43;;
72275;SDS011;61204;49.980;8.358;2023-08-06T05:56:04;0.57;;;0.28;;
72275;SDS011;61204;49.980;8.358;2023-08-06T05:58:29;0.77;;;0.38;;
72275;SDS011;61204;49.980;8.358;2023-08-06T06:00:55;1.45;;;0.50;;
72275;SDS011;61204;49.980;8.358;2023-08-06T06:03:21;0.65;;;0.25;;
72275;SDS011;61204;49.980;8.358;2023-08-06T06:05:47;0.77;;;0.40;;
72275;SDS011;61204;49.980;8.358;2023-08-06T06:08:13;0.30;;;0.30;;
72275;SDS011;61204;49.980;8.358;2023-08-06T06:10:38;1.20;;;0.20;;
72275;SDS011;61204;49.980;8.358;2023-08-06T06:13:04;0.80;;;0.20;;
72275;SDS011;61204;49.980;8.358;2023-08-06T06:15:29;0.95;;;0.10;;
72275;SDS011;61204;49.980;8.358;2023-08-06T06:17:55;0.28;;;0.20;;
72275;SDS011;61204;49.980;8.358;2023-08-06T06:20:21;3.33;;;0.50;;
72275;SDS011;61204;49.980;8.358;2023-08-06T06:22:47;0.60;;;0.15;;
72275;SDS011;61204;49.980;8.358;2023-08-06T06:25:14;0.43;;;0.22;;
72275;SDS011;61204;49.980;8.358;2023-08-06T06:27:43;0.40;;;0.15;;
72275;SDS011;61204;49.980;8.358;2023-08-06T06:30:09;0.30;;;0.20;;
72275;SDS011;61204;49.980;8.358;2023-08-06T06:32:37;0.20;;;0.20;;
72275;SDS011;61204;49.980;8.358;2023-08-06T06:35:05;1.10;;;0.25;;
72275;SDS011;61204;49.980;8.358;2023-08-06T06:37:30;0.63;;;0.38;;
72275;SDS011;61204;49.980;8.358;2023-08-06T06:39:56;1.80;;;0.40;;
72275;SDS011;61204;49.980;8.358;2023-08-06T06:42:22;1.13;;;0.30;;
72275;SDS011;61204;49.980;8.358;2023-08-06T06:44:48;0.63;;;0.30;;
72275;SDS011;61204;49.980;8.358;2023-08-06T06:47:16;0.22;;;0.20;;
72275;SDS011;61204;49.980;8.358;2023-08-06T06:49:43;0.28;;;0.28;;
72275;SDS011;61204;49.980;8.358;2023-08-06T06:52:09;1.05;;;0.30;;
72275;SDS011;61204;49.980;8.358;2023-08-06T06:54:36;0.20;;;0.20;;
72275;SDS011;61204;49.980;8.358;2023-08-06T06:57:05;0.45;;;0.22;;
72275;SDS011;61204;49.980;8.358;2023-08-06T06:59:33;1.10;;;0.20;;
72275;SDS011;61204;49.980;8.358;2023-08-06T07:01:59;0.50;;;0.22;;
72275;SDS011;61204;49.980;8.358;2023-08-06T07:04:24;2.35;;;0.35;;
72275;SDS011;61204;49.980;8.358;2023-08-06T07:06:50;0.50;;;0.20;;
72275;SDS011;61204;49.980;8.358;2023-08-06T07:09:17;1.05;;;0.40;;
72275;SDS011;61204;49.980;8.358;2023-08-06T07:11:42;1.05;;;0.30;;
72275;SDS011;61204;49.980;8.358;2023-08-06T07:14:09;0.68;;;0.50;;
72275;SDS011;61204;49.980;8.358;2023-08-06T07:16:34;0.40;;;0.40;;
72275;SDS011;61204;49.980;8.358;2023-08-06T07:19:00;0.73;;;0.30;;
72275;SDS011;61204;49.980;8.358;2023-08-06T07:21:25;0.20;;;0.17;;
72275;SDS011;61204;49.980;8.358;2023-08-06T07:23:51;0.68;;;0.20;;
72275;SDS011;61204;49.980;8.358;2023-08-06T07:26:17;0.35;;;0.30;;
72275;SDS011;61204;49.980;8.358;2023-08-06T07:28:42;0.35;;;0.22;;
72275;SDS011;61204;49.980;8.358;2023-08-06T07:31:10;0.20;;;0.20;;
72275;SDS011;61204;49.980;8.358;2023-08-06T07:33:36;0.80;;;0.20;;
72275;SDS011;61204;49.980;8.358;2023-08-06T07:36:11;0.50;;;0.20;;
72275;SDS011;61204;49.980;8.358;2023-08-06T07:38:39;1.25;;;0.20;;
72275;SDS011;61204;49.980;8.358;2023-08-06T07:41:08;0.65;;;0.30;;
72275;SDS011;61204;49.980;8.358;2023-08-06T07:43:34;0.28;;;0.25;;
72275;SDS011;61204;49.980;8.358;2023-08-06T07:46:01;0.57;;;0.10;;
72275;SDS011;61204;49.980;8.358;2023-08-06T07:48:29;0.10;;;0.10;;
72275;SDS011;61204;49.980;8.358;2023-08-06T07:50:55;0.28;;;0.17;;
72275;SDS011;61204;49.980;8.358;2023-08-06T07:53:22;0.70;;;0.30;;
72275;SDS011;61204;49.980;8.358;2023-08-06T07:55:54;0.30;;;0.20;;
72275;SDS011;61204;49.980;8.358;2023-08-06T07:58:20;0.40;;;0.20;;
72275;SDS011;61204;49.980;8.358;2023-08-06T08:00:48;0.35;;;0.20;;
72275;SDS011;61204;49.980;8.358;2023-08-06T08:03:14;0.30;;;0.10;;
72275;SDS011;61204;49.980;8.358;2023-08-06T08:05:42;0.43;;;0.20;;
72275;SDS011;61204;49.980;8.358;2023-08-06T08:08:09;0.35;;;0.20;;
72275;SDS011;61204;49.980;8.358;2023-08-06T08:10:35;0.13;;;0.13;;
72275;SDS011;61204;49.980;8.358;2023-08-06T08:13:03;0.00;;;0.00;;
72275;SDS011;61204;49.980;8.358;2023-08-06T08:15:29;0.60;;;0.30;;
72275;SDS011;61204;49.980;8.358;2023-08-06T08:17:57;0.30;;;0.20;;
72275;SDS011;61204;49.980;8.358;2023-08-06T08:20:24;0.10;;;0.10;;
72275;SDS011;61204;49.980;8.358;2023-08-06T08:22:49;0.30;;;0.20;;
72275;SDS011;61204;49.980;8.358;2023-08-06T08:25:15;0.20;;;0.20;;
72275;SDS011;61204;49.980;8.358;2023-08-06T08:27:41;0.20;;;0.20;;
72275;SDS011;61204;49.980;8.358;2023-08-06T08:30:07;0.30;;;0.10;;
72275;SDS011;61204;49.980;8.358;2023-08-06T08:32:33;0.10;;;0.10;;
72275;SDS011;61204;49.980;8.358;2023-08-06T08:34:59;0.55;;;0.20;;
72275;SDS011;61204;49.980;8.358;2023-08-06T08:37:25;0.93;;;0.25;;
72275;SDS011;61204;49.980;8.358;2023-08-06T08:39:50;0.55;;;0.25;;
72275;SDS011;61204;49.980;8.358;2023-08-06T08:42:17;1.67;;;0.28;;
72275;SDS011;61204;49.980;8.358;2023-08-06T08:44:43;0.80;;;0.20;;
72275;SDS011;61204;49.980;8.358;2023-08-06T08:47:10;0.10;;;0.10;;
72275;SDS011;61204;49.980;8.358;2023-08-06T08:49:38;1.42;;;0.77;;
72275;SDS011;61204;49.980;8.358;2023-08-06T08:52:05;0.20;;;0.10;;
72275;SDS011;61204;49.980;8.358;2023-08-06T08:54:37;0.38;;;0.20;;
72275;SDS011;61204;49.980;8.358;2023-08-06T08:57:05;0.38;;;0.20;;
72275;SDS011;61204;49.980;8.358;2023-08-06T08:59:33;0.13;;;0.13;;
72275;SDS011;61204;49.980;8.358;2023-08-06T09:02:00;1.33;;;0.22;;
72275;SDS011;61204;49.980;8.358;2023-08-06T09:04:27;0.40;;;0.25;;
72275;SDS011;61204;49.980;8.358;2023-08-06T09:06:56;0.20;;;0.20;;
72275;SDS011;61204;49.980;8.358;2023-08-06T09:09:28;0.13;;;0.10;;
72275;SDS011;61204;49.980;8.358;2023-08-06T09:12:04;0.28;;;0.13;;
72275;SDS011;61204;49.980;8.358;2023-08-06T09:14:39;0.10;;;0.10;;
72275;SDS011;61204;49.980;8.358;2023-08-06T09:17:08;0.03;;;0.03;;
72275;SDS011;61204;49.980;8.358;2023-08-06T09:19:36;0.30;;;0.30;;
72275;SDS011;61204;49.980;8.358;2023-08-06T09:22:02;0.10;;;0.10;;
72275;SDS011;61204;49.980;8.358;2023-08-06T09:24:28;0.20;;;0.20;;
72275;SDS011;61204;49.980;8.358;2023-08-06T09:26:54;0.30;;;0.20;;
72275;SDS011;61204;49.980;8.358;2023-08-06T09:29:23;1.88;;;0.73;;
72275;SDS011;61204;49.980;8.358;2023-08-06T09:31:49;0.17;;;0.17;;
72275;SDS011;61204;49.980;8.358;2023-08-06T09:34:21;0.57;;;0.20;;
72275;SDS011;61204;49.980;8.358;2023-08-06T09:36:48;0.20;;;0.10;;
72275;SDS011;61204;49.980;8.358;2023-08-06T09:39:21;0.50;;;0.22;;
72275;SDS011;61204;49.980;8.358;2023-08-06T09:41:56;0.20;;;0.20;;
72275;SDS011;61204;49.980;8.358;2023-08-06T09:44:27;0.65;;;0.30;;
72275;SDS011;61204;49.980;8.358;2023-08-06T09:47:00;0.10;;;0.10;;
72275;SDS011;61204;49.980;8.358;2023-08-06T09:51:59;3.28;;;0.40;;
72275;SDS011;61204;49.980;8.358;2023-08-06T09:54:26;0.50;;;0.20;;
72275;SDS011;61204;49.980;8.358;2023-08-06T09:56:56;0.35;;;0.28;;
72275;SDS011;61204;49.980;8.358;2023-08-06T09:59:22;0.30;;;0.30;;
72275;SDS011;61204;49.980;8.358;2023-08-06T10:01:49;0.30;;;0.22;;
72275;SDS011;61204;49.980;8.358;2023-08-06T10:04:16;0.55;;;0.15;;
72275;SDS011;61204;49.980;8.358;2023-08-06T10:06:42;0.10;;;0.10;;
72275;SDS011;61204;49.980;8.358;2023-08-06T10:09:15;0.10;;;0.10;;
72275;SDS011;61204;49.980;8.358;2023-08-06T10:11:47;0.17;;;0.10;;
72275;SDS011;61204;49.980;8.358;2023-08-06T10:14:33;0.38;;;0.22;;
72275;SDS011;61204;49.980;8.358;2023-08-06T10:17:09;0.20;;;0.20;;
72275;SDS011;61204;49.980;8.358;2023-08-06T10:19:35;0.73;;;0.20;;
72275;SDS011;61204;49.980;8.358;2023-08-06T10:27:52;0.30;;;0.20;;
72275;SDS011;61204;49.980;8.358;2023-08-06T10:33:13;0.10;;;0.10;;
72275;SDS011;61204;49.980;8.358;2023-08-06T10:35:43;0.10;;;0.10;;
72275;SDS011;61204;49.980;8.358;2023-08-06T10:38:18;0.35;;;0.10;;
72275;SDS011;61204;49.980;8.358;2023-08-06T10:40:52;1.33;;;0.10;;
72275;SDS011;61204;49.980;8.358;2023-08-06T10:43:34;0.10;;;0.10;;
72275;SDS011;61204;49.980;8.358;2023-08-06T10:46:10;0.08;;;0.08;;
72275;SDS011;61204;49.980;8.358;2023-08-06T10:48:52;0.10;;;0.10;;
72275;SDS011;61204;49.980;8.358;2023-08-06T10:51:18;1.48;;;0.20;;
72275;SDS011;61204;49.980;8.358;2023-08-06T10:53:47;0.10;;;0.00;;
72275;SDS011;61204;49.980;8.358;2023-08-06T10:56:18;0.20;;;0.10;;
72275;SDS011;61204;49.980;8.358;2023-08-06T10:58:50;0.10;;;0.10;;
72275;SDS011;61204;49.980;8.358;2023-08-06T11:01:19;0.57;;;0.20;;
72275;SDS011;61204;49.980;8.358;2023-08-06T11:03:50;0.10;;;0.10;;
72275;SDS011;61204;49.980;8.358;2023-08-06T11:06:18;0.10;;;0.10;;
72275;SDS011;61204;49.980;8.358;2023-08-06T11:08:49;0.20;;;0.15;;
72275;SDS011;61204;49.980;8.358;2023-08-06T11:11:19;0.20;;;0.20;;
72275;SDS011;61204;49.980;8.358;2023-08-06T11:13:48;0.10;;;0.10;;
72275;SDS011;61204;49.980;8.358;2023-08-06T11:16:21;0.05;;;0.05;;
72275;SDS011;61204;49.980;8.358;2023-08-06T11:21:24;0.73;;;0.10;;
72275;SDS011;61204;49.980;8.358;2023-08-06T11:23:51;0.85;;;0.17;;
72275;SDS011;61204;49.980;8.358;2023-08-06T11:26:20;0.10;;;0.10;;
72275;SDS011;61204;49.980;8.358;2023-08-06T11:28:48;0.68;;;0.10;;
72275;SDS011;61204;49.980;8.358;2023-08-06T11:31:24;0.28;;;0.10;;
72275;SDS011;61204;49.980;8.358;2023-08-06T11:33:50;0.43;;;0.20;;
72275;SDS011;61204;49.980;8.358;2023-08-06T11:36:28;0.10;;;0.10;;
72275;SDS011;61204;49.980;8.358;2023-08-06T11:39:08;2.78;;;0.20;;
72275;SDS011;61204;49.980;8.358;2023-08-06T11:41:35;3.10;;;0.30;;
72275;SDS011;61204;49.980;8.358;2023-08-06T11:44:03;0.00;;;0.00;;
72275;SDS011;61204;49.980;8.358;2023-08-06T11:52:30;0.30;;;0.20;;
72275;SDS011;61204;49.980;8.358;2023-08-06T11:57:35;0.15;;;0.15;;
72275;SDS011;61204;49.980;8.358;2023-08-06T12:00:13;0.82;;;0.30;;
72275;SDS011;61204;49.980;8.358;2023-08-06T12:02:42;0.30;;;0.30;;
72275;SDS011;61204;49.980;8.358;2023-08-06T12:05:14;0.20;;;0.20;;
72275;SDS011;61204;49.980;8.358;2023-08-06T12:07:51;0.22;;;0.20;;
72275;SDS011;61204;49.980;8.358;2023-08-06T12:10:23;0.60;;;0.30;;
72275;SDS011;61204;49.980;8.358;2023-08-06T12:12:52;0.98;;;0.35;;
72275;SDS011;61204;49.980;8.358;2023-08-06T12:15:18;0.73;;;0.30;;
72275;SDS011;61204;49.980;8.358;2023-08-06T12:17:44;1.35;;;0.57;;
72275;SDS011;61204;49.980;8.358;2023-08-06T12:20:10;1.35;;;0.25;;
72275;SDS011;61204;49.980;8.358;2023-08-06T12:22:36;0.20;;;0.20;;
72275;SDS011;61204;49.980;8.358;2023-08-06T12:25:05;0.52;;;0.30;;
72275;SDS011;61204;49.980;8.358;2023-08-06T12:27:37;0.35;;;0.30;;
72275;SDS011;61204;49.980;8.358;2023-08-06T12:30:05;1.38;;;0.30;;
72275;SDS011;61204;49.980;8.358;2023-08-06T12:32:32;0.17;;;0.17;;
72275;SDS011;61204;49.980;8.358;2023-08-06T12:34:59;0.57;;;0.25;;
72275;SDS011;61204;49.980;8.358;2023-08-06T12:37:26;0.55;;;0.30;;
72275;SDS011;61204;49.980;8.358;2023-08-06T12:39:52;0.40;;;0.40;;
72275;SDS011;61204;49.980;8.358;2023-08-06T12:42:18;0.25;;;0.22;;
72275;SDS011;61204;49.980;8.358;2023-08-06T12:44:44;0.40;;;0.22;;
72275;SDS011;61204;49.980;8.358;2023-08-06T12:47:10;0.20;;;0.20;;
72275;SDS011;61204;49.980;8.358;2023-08-06T12:49:36;0.82;;;0.40;;
72275;SDS011;61204;49.980;8.358;2023-08-06T12:52:01;0.77;;;0.50;;
72275;SDS011;61204;49.980;8.358;2023-08-06T12:54:31;3.05;;;1.10;;
72275;SDS011;61204;49.980;8.358;2023-08-06T12:57:01;2.38;;;0.60;;
72275;SDS011;61204;49.980;8.358;2023-08-06T12:59:28;0.43;;;0.40;;
72275;SDS011;61204;49.980;8.358;2023-08-06T13:01:56;0.60;;;0.30;;
72275;SDS011;61204;49.980;8.358;2023-08-06T13:04:22;2.33;;;0.50;;
72275;SDS011;61204;49.980;8.358;2023-08-06T13:06:47;0.63;;;0.30;;
72275;SDS011;61204;49.980;8.358;2023-08-06T13:09:13;0.65;;;0.40;;
72275;SDS011;61204;49.980;8.358;2023-08-06T13:11:43;1.98;;;0.40;;
72275;SDS011;61204;49.980;8.358;2023-08-06T13:14:14;1.60;;;0.50;;
72275;SDS011;61204;49.980;8.358;2023-08-06T13:16:42;1.10;;;0.60;;
72275;SDS011;61204;49.980;8.358;2023-08-06T13:19:09;0.85;;;0.40;;
72275;SDS011;61204;49.980;8.358;2023-08-06T13:21:59;1.25;;;0.43;;
72275;SDS011;61204;49.980;8.358;2023-08-06T13:24:28;1.08;;;0.60;;
72275;SDS011;61204;49.980;8.358;2023-08-06T13:26:55;0.28;;;0.28;;
72275;SDS011;61204;49.980;8.358;2023-08-06T13:29:20;1.52;;;0.40;;
72275;SDS011;61204;49.980;8.358;2023-08-06T13:31:46;0.30;;;0.30;;
72275;SDS011;61204;49.980;8.358;2023-08-06T13:34:12;1.08;;;0.50;;
72275;SDS011;61204;49.980;8.358;2023-08-06T13:36:37;0.80;;;0.40;;
72275;SDS011;61204;49.980;8.358;2023-08-06T13:39:05;0.63;;;0.55;;
72275;SDS011;61204;49.980;8.358;2023-08-06T13:41:31;0.45;;;0.30;;
72275;SDS011;61204;49.980;8.358;2023-08-06T13:43:57;0.73;;;0.28;;
72275;SDS011;61204;49.980;8.358;2023-08-06T13:46:22;0.80;;;0.30;;
72275;SDS011;61204;49.980;8.358;2023-08-06T13:48:48;1.67;;;0.38;;
72275;SDS011;61204;49.980;8.358;2023-08-06T13:51:19;0.30;;;0.20;;
72275;SDS011;61204;49.980;8.358;2023-08-06T13:53:44;0.55;;;0.20;;
72275;SDS011;61204;49.980;8.358;2023-08-06T13:56:10;0.73;;;0.25;;
72275;SDS011;61204;49.980;8.358;2023-08-06T13:58:37;0.35;;;0.20;;
72275;SDS011;61204;49.980;8.358;2023-08-06T14:01:03;1.05;;;0.20;;
72275;SDS011;61204;49.980;8.358;2023-08-06T14:03:29;1.17;;;0.20;;
72275;SDS011;61204;49.980;8.358;2023-08-06T14:05:55;0.20;;;0.13;;
72275;SDS011;61204;49.980;8.358;2023-08-06T14:08:21;0.10;;;0.10;;
72275;SDS011;61204;49.980;8.358;2023-08-06T14:10:53;0.40;;;0.20;;
72275;SDS011;61204;49.980;8.358;2023-08-06T14:13:22;0.35;;;0.20;;
72275;SDS011;61204;49.980;8.358;2023-08-06T14:15:47;1.33;;;0.63;;
72275;SDS011;61204;49.980;8.358;2023-08-06T14:18:13;0.17;;;0.13;;
72275;SDS011;61204;49.980;8.358;2023-08-06T14:20:43;0.13;;;0.13;;
72275;SDS011;61204;49.980;8.358;2023-08-06T14:23:09;0.40;;;0.30;;
72275;SDS011;61204;49.980;8.358;2023-08-06T14:25:35;0.55;;;0.20;;
72275;SDS011;61204;49.980;8.358;2023-08-06T14:28:02;0.20;;;0.20;;
72275;SDS011;61204;49.980;8.358;2023-08-06T14:30:34;1.55;;;0.20;;
72275;SDS011;61204;49.980;8.358;2023-08-06T14:33:00;0.20;;;0.10;;
72275;SDS011;61204;49.980;8.358;2023-08-06T14:35:26;0.20;;;0.17;;
72275;SDS011;61204;49.980;8.358;2023-08-06T14:37:52;0.60;;;0.20;;
72275;SDS011;61204;49.980;8.358;2023-08-06T14:40:18;0.38;;;0.20;;
72275;SDS011;61204;49.980;8.358;2023-08-06T14:42:46;0.10;;;0.10;;
72275;SDS011;61204;49.980;8.358;2023-08-06T14:45:11;0.68;;;0.20;;
72275;SDS011;61204;49.980;8.358;2023-08-06T14:47:38;0.70;;;0.10;;
72275;SDS011;61204;49.980;8.358;2023-08-06T14:50:03;0.10;;;0.10;;
72275;SDS011;61204;49.980;8.358;2023-08-06T14:52:29;0.10;;;0.10;;
72275;SDS011;61204;49.980;8.358;2023-08-06T14:54:56;0.35;;;0.10;;
72275;SDS011;61204;49.980;8.358;2023-08-06T14:57:22;0.40;;;0.22;;
72275;SDS011;61204;49.980;8.358;2023-08-06T14:59:52;0.20;;;0.15;;
72275;SDS011;61204;49.980;8.358;2023-08-06T15:02:19;0.20;;;0.10;;
72275;SDS011;61204;49.980;8.358;2023-08-06T15:04:46;0.30;;;0.20;;
72275;SDS011;61204;49.980;8.358;2023-08-06T15:07:12;0.03;;;0.03;;
72275;SDS011;61204;49.980;8.358;2023-08-06T15:09:38;0.45;;;0.30;;
72275;SDS011;61204;49.980;8.358;2023-08-06T15:12:04;0.20;;;0.10;;
72275;SDS011;61204;49.980;8.358;2023-08-06T15:14:30;0.00;;;0.00;;
72275;SDS011;61204;49.980;8.358;2023-08-06T15:16:55;0.20;;;0.17;;
72275;SDS011;61204;49.980;8.358;2023-08-06T15:19:22;1.67;;;0.30;;
72275;SDS011;61204;49.980;8.358;2023-08-06T15:21:49;0.30;;;0.20;;
72275;SDS011;61204;49.980;8.358;2023-08-06T15:24:15;0.40;;;0.20;;